sensor_id;sensor_type;location;lat;lon;timestamp;temperature;humidity
63976;DHT22;50167;47.958;21.780;2023-08-30T00:01:17;27.03;62.97
63976;DHT22;50167;47.958;21.780;2023-08-30T00:03:43;26.97;62.33
63976;DHT22;50167;47.958;21.780;2023-08-30T00:06:09;26.91;62.25
63976;DHT22;50167;47.958;21.780;2023-08-30T00:08:35;26.93;61.63
63976;DHT22;50167;47.958;21.780;2023-08-30T00:11:02;26.83;61.55
63976;DHT22;50167;47.958;21.780;2023-08-30T00:13:31;26.76;61.54
63976;DHT22;50167;47.958;21.780;2023-08-30T00:15:59;26.74;61.20
63976;DHT22;50167;47.958;21.780;2023-08-30T00:18:25;26.72;61.17
63976;DHT22;50167;47.958;21.780;2023-08-30T00:20:51;26.59;61.29
63976;DHT22;50167;47.958;21.780;2023-08-30T00:23:18;26.64;61.65
63976;DHT22;50167;47.958;21.780;2023-08-30T00:25:44;26.79;61.08
63976;DHT22;50167;47.958;21.780;2023-08-30T00:28:10;26.76;60.97
63976;DHT22;50167;47.958;21.780;2023-08-30T00:30:36;26.76;61.17
63976;DHT22;50167;47.958;21.780;2023-08-30T00:33:03;26.76;60.92
63976;DHT22;50167;47.958;21.780;2023-08-30T00:35:30;26.66;61.21
63976;DHT22;50167;47.958;21.780;2023-08-30T00:37:56;26.63;61.41
63976;DHT22;50167;47.958;21.780;2023-08-30T00:40:25;26.62;61.91
63976;DHT22;50167;47.958;21.780;2023-08-30T00:42:52;26.74;61.73
63976;DHT22;50167;47.958;21.780;2023-08-30T00:45:18;26.64;61.94
63976;DHT22;50167;47.958;21.780;2023-08-30T00:47:45;26.70;62.16
63976;DHT22;50167;47.958;21.780;2023-08-30T00:50:11;26.78;61.91
63976;DHT22;50167;47.958;21.780;2023-08-30T00:52:38;26.82;61.44
63976;DHT22;50167;47.958;21.780;2023-08-30T00:55:05;26.90;61.06
63976;DHT22;50167;47.958;21.780;2023-08-30T00:57:33;26.89;61.21
63976;DHT22;50167;47.958;21.780;2023-08-30T01:00:00;26.97;60.79
63976;DHT22;50167;47.958;21.780;2023-08-30T01:02:29;27.06;60.47
63976;DHT22;50167;47.958;21.780;2023-08-30T01:04:57;27.17;60.01
63976;DHT22;50167;47.958;21.780;2023-08-30T01:07:24;27.24;59.80
63976;DHT22;50167;47.958;21.780;2023-08-30T01:09:50;27.18;59.37
63976;DHT22;50167;47.958;21.780;2023-08-30T01:12:23;26.60;60.11
63976;DHT22;50167;47.958;21.780;2023-08-30T01:15:02;25.56;62.23
63976;DHT22;50167;47.958;21.780;2023-08-30T01:17:28;25.52;64.33
63976;DHT22;50167;47.958;21.780;2023-08-30T01:20:01;26.09;63.12
63976;DHT22;50167;47.958;21.780;2023-08-30T01:26:00;26.51;61.69
63976;DHT22;50167;47.958;21.780;2023-08-30T01:28:29;26.52;61.25
63976;DHT22;50167;47.958;21.780;2023-08-30T01:30:58;26.51;61.19
63976;DHT22;50167;47.958;21.780;2023-08-30T01:33:26;26.45;61.32
63976;DHT22;50167;47.958;21.780;2023-08-30T01:35:59;26.43;61.26
63976;DHT22;50167;47.958;21.780;2023-08-30T01:38:27;26.38;61.00
63976;DHT22;50167;47.958;21.780;2023-08-30T01:40:57;26.42;61.28
63976;DHT22;50167;47.958;21.780;2023-08-30T01:43:26;26.42;61.62
63976;DHT22;50167;47.958;21.780;2023-08-30T01:45:54;26.30;61.50
63976;DHT22;50167;47.958;21.780;2023-08-30T01:48:24;26.28;61.12
63976;DHT22;50167;47.958;21.780;2023-08-30T01:50:52;26.28;61.12
63976;DHT22;50167;47.958;21.780;2023-08-30T01:53:21;26.39;61.14
63976;DHT22;50167;47.958;21.780;2023-08-30T01:55:48;26.51;60.57
63976;DHT22;50167;47.958;21.780;2023-08-30T01:58:14;26.49;60.29
63976;DHT22;50167;47.958;21.780;2023-08-30T02:00:41;26.49;60.39
63976;DHT22;50167;47.958;21.780;2023-08-30T02:03:12;26.53;60.32
63976;DHT22;50167;47.958;21.780;2023-08-30T02:06:07;26.60;59.98
63976;DHT22;50167;47.958;21.780;2023-08-30T02:08:55;26.59;59.98
63976;DHT22;50167;47.958;21.780;2023-08-30T02:11:26;26.58;59.86
63976;DHT22;50167;47.958;21.780;2023-08-30T02:13:53;26.60;59.81
63976;DHT22;50167;47.958;21.780;2023-08-30T02:16:21;26.60;60.04
63976;DHT22;50167;47.958;21.780;2023-08-30T02:18:49;26.64;59.95
63976;DHT22;50167;47.958;21.780;2023-08-30T02:21:16;26.66;59.74
63976;DHT22;50167;47.958;21.780;2023-08-30T02:23:42;26.69;59.93
63976;DHT22;50167;47.958;21.780;2023-08-30T02:26:08;26.67;59.80
63976;DHT22;50167;47.958;21.780;2023-08-30T02:28:34;26.67;59.79
63976;DHT22;50167;47.958;21.780;2023-08-30T02:31:01;26.62;59.80
63976;DHT22;50167;47.958;21.780;2023-08-30T02:33:28;26.55;59.79
63976;DHT22;50167;47.958;21.780;2023-08-30T02:35:55;26.53;59.94
63976;DHT22;50167;47.958;21.780;2023-08-30T02:38:21;26.51;59.97
63976;DHT22;50167;47.958;21.780;2023-08-30T02:40:47;26.52;59.84
63976;DHT22;50167;47.958;21.780;2023-08-30T02:43:13;26.46;60.12
63976;DHT22;50167;47.958;21.780;2023-08-30T02:45:40;26.39;60.37
63976;DHT22;50167;47.958;21.780;2023-08-30T02:48:06;26.38;60.41
63976;DHT22;50167;47.958;21.780;2023-08-30T02:50:32;26.28;60.45
63976;DHT22;50167;47.958;21.780;2023-08-30T02:52:58;26.14;60.77
63976;DHT22;50167;47.958;21.780;2023-08-30T02:55:26;26.07;61.17
63976;DHT22;50167;47.958;21.780;2023-08-30T02:57:52;26.07;61.27
63976;DHT22;50167;47.958;21.780;2023-08-30T03:00:19;26.07;61.21
63976;DHT22;50167;47.958;21.780;2023-08-30T03:02:45;26.04;61.21
63976;DHT22;50167;47.958;21.780;2023-08-30T03:05:11;26.08;61.12
63976;DHT22;50167;47.958;21.780;2023-08-30T03:07:37;26.01;61.03
63976;DHT22;50167;47.958;21.780;2023-08-30T03:10:05;25.98;61.34
63976;DHT22;50167;47.958;21.780;2023-08-30T03:12:31;25.97;61.63
63976;DHT22;50167;47.958;21.780;2023-08-30T03:14:58;26.00;61.57
63976;DHT22;50167;47.958;21.780;2023-08-30T03:17:24;25.98;61.59
63976;DHT22;50167;47.958;21.780;2023-08-30T03:19:52;25.97;61.55
63976;DHT22;50167;47.958;21.780;2023-08-30T03:22:22;25.97;61.50
63976;DHT22;50167;47.958;21.780;2023-08-30T03:24:48;25.95;61.34
63976;DHT22;50167;47.958;21.780;2023-08-30T03:27:17;25.91;61.39
63976;DHT22;50167;47.958;21.780;2023-08-30T03:29:45;25.88;61.36
63976;DHT22;50167;47.958;21.780;2023-08-30T03:32:20;25.88;61.40
63976;DHT22;50167;47.958;21.780;2023-08-30T03:34:47;25.86;61.39
63976;DHT22;50167;47.958;21.780;2023-08-30T03:37:17;25.83;61.50
63976;DHT22;50167;47.958;21.780;2023-08-30T03:39:43;25.80;61.47
63976;DHT22;50167;47.958;21.780;2023-08-30T03:42:09;25.73;61.54
63976;DHT22;50167;47.958;21.780;2023-08-30T03:44:37;25.66;61.68
63976;DHT22;50167;47.958;21.780;2023-08-30T03:47:04;25.62;62.05
63976;DHT22;50167;47.958;21.780;2023-08-30T03:49:31;25.52;62.08
63976;DHT22;50167;47.958;21.780;2023-08-30T03:51:57;25.43;62.42
63976;DHT22;50167;47.958;21.780;2023-08-30T03:54:23;25.33;62.64
63976;DHT22;50167;47.958;21.780;2023-08-30T03:56:49;25.25;63.01
63976;DHT22;50167;47.958;21.780;2023-08-30T03:59:15;25.18;62.80
63976;DHT22;50167;47.958;21.780;2023-08-30T04:01:42;25.14;63.19
63976;DHT22;50167;47.958;21.780;2023-08-30T04:04:08;25.08;63.57
63976;DHT22;50167;47.958;21.780;2023-08-30T04:06:34;25.21;63.71
63976;DHT22;50167;47.958;21.780;2023-08-30T04:09:00;25.42;62.93
63976;DHT22;50167;47.958;21.780;2023-08-30T04:11:26;25.49;62.48
63976;DHT22;50167;47.958;21.780;2023-08-30T04:13:52;25.53;62.08
63976;DHT22;50167;47.958;21.780;2023-08-30T04:16:18;25.50;61.92
63976;DHT22;50167;47.958;21.780;2023-08-30T04:18:44;25.43;62.35
63976;DHT22;50167;47.958;21.780;2023-08-30T04:21:11;25.38;62.39
63976;DHT22;50167;47.958;21.780;2023-08-30T04:23:37;25.49;62.30
63976;DHT22;50167;47.958;21.780;2023-08-30T04:26:03;25.45;62.20
63976;DHT22;50167;47.958;21.780;2023-08-30T04:28:29;25.39;62.33
63976;DHT22;50167;47.958;21.780;2023-08-30T04:30:56;25.40;62.42
63976;DHT22;50167;47.958;21.780;2023-08-30T04:33:23;25.38;62.27
63976;DHT22;50167;47.958;21.780;2023-08-30T04:35:52;25.40;62.38
63976;DHT22;50167;47.958;21.780;2023-08-30T04:38:20;25.40;62.27
63976;DHT22;50167;47.958;21.780;2023-08-30T04:40:47;25.45;62.43
63976;DHT22;50167;47.958;21.780;2023-08-30T04:43:14;25.55;62.38
63976;DHT22;50167;47.958;21.780;2023-08-30T04:45:41;25.63;62.03
63976;DHT22;50167;47.958;21.780;2023-08-30T04:48:07;25.70;61.90
63976;DHT22;50167;47.958;21.780;2023-08-30T04:50:33;25.84;61.71
63976;DHT22;50167;47.958;21.780;2023-08-30T04:53:00;26.01;61.35
63976;DHT22;50167;47.958;21.780;2023-08-30T04:55:28;26.09;61.10
63976;DHT22;50167;47.958;21.780;2023-08-30T04:57:55;26.18;60.53
63976;DHT22;50167;47.958;21.780;2023-08-30T05:00:22;26.14;60.95
63976;DHT22;50167;47.958;21.780;2023-08-30T05:02:48;26.25;60.58
63976;DHT22;50167;47.958;21.780;2023-08-30T05:05:15;26.25;60.45
63976;DHT22;50167;47.958;21.780;2023-08-30T05:07:41;26.28;60.20
63976;DHT22;50167;47.958;21.780;2023-08-30T05:10:08;26.28;60.37
63976;DHT22;50167;47.958;21.780;2023-08-30T05:12:35;26.28;60.61
63976;DHT22;50167;47.958;21.780;2023-08-30T05:15:01;26.31;60.48
63976;DHT22;50167;47.958;21.780;2023-08-30T05:17:29;26.52;60.17
63976;DHT22;50167;47.958;21.780;2023-08-30T05:19:56;26.55;59.61
63976;DHT22;50167;47.958;21.780;2023-08-30T05:22:22;26.63;59.47
63976;DHT22;50167;47.958;21.780;2023-08-30T05:24:48;26.34;59.61
63976;DHT22;50167;47.958;21.780;2023-08-30T05:27:14;25.48;61.48
63976;DHT22;50167;47.958;21.780;2023-08-30T05:29:42;24.71;63.31
63976;DHT22;50167;47.958;21.780;2023-08-30T05:32:08;24.78;64.69
63976;DHT22;50167;47.958;21.780;2023-08-30T05:34:35;25.46;63.83
63976;DHT22;50167;47.958;21.780;2023-08-30T05:37:01;25.81;62.18
63976;DHT22;50167;47.958;21.780;2023-08-30T05:39:28;26.00;62.03
63976;DHT22;50167;47.958;21.780;2023-08-30T05:41:54;26.12;61.48
63976;DHT22;50167;47.958;21.780;2023-08-30T05:44:21;26.22;61.30
63976;DHT22;50167;47.958;21.780;2023-08-30T05:46:47;26.45;60.87
63976;DHT22;50167;47.958;21.780;2023-08-30T05:49:13;26.59;60.38
63976;DHT22;50167;47.958;21.780;2023-08-30T05:51:39;26.64;60.12
63976;DHT22;50167;47.958;21.780;2023-08-30T05:54:06;26.76;60.35
63976;DHT22;50167;47.958;21.780;2023-08-30T05:56:33;27.04;59.65
63976;DHT22;50167;47.958;21.780;2023-08-30T05:58:59;26.87;59.07
63976;DHT22;50167;47.958;21.780;2023-08-30T06:01:25;26.05;61.02
63976;DHT22;50167;47.958;21.780;2023-08-30T06:03:52;25.36;62.35
63976;DHT22;50167;47.958;21.780;2023-08-30T06:06:18;25.45;63.30
63976;DHT22;50167;47.958;21.780;2023-08-30T06:08:45;26.15;62.01
63976;DHT22;50167;47.958;21.780;2023-08-30T06:11:11;26.60;60.94
63976;DHT22;50167;47.958;21.780;2023-08-30T06:13:37;26.91;59.59
63976;DHT22;50167;47.958;21.780;2023-08-30T06:16:03;27.11;59.13
63976;DHT22;50167;47.958;21.780;2023-08-30T06:18:31;26.72;59.60
63976;DHT22;50167;47.958;21.780;2023-08-30T06:20:59;26.00;60.86
63976;DHT22;50167;47.958;21.780;2023-08-30T06:23:27;25.42;62.46
63976;DHT22;50167;47.958;21.780;2023-08-30T06:25:54;25.69;63.24
63976;DHT22;50167;47.958;21.780;2023-08-30T06:28:21;26.55;61.70
63976;DHT22;50167;47.958;21.780;2023-08-30T06:30:48;27.06;60.07
63976;DHT22;50167;47.958;21.780;2023-08-30T06:33:14;27.41;58.73
63976;DHT22;50167;47.958;21.780;2023-08-30T06:35:40;27.13;58.50
63976;DHT22;50167;47.958;21.780;2023-08-30T06:38:11;26.46;60.22
63976;DHT22;50167;47.958;21.780;2023-08-30T06:40:37;25.97;61.16
63976;DHT22;50167;47.958;21.780;2023-08-30T06:43:05;25.59;62.90
63976;DHT22;50167;47.958;21.780;2023-08-30T06:45:31;26.14;62.21
63976;DHT22;50167;47.958;21.780;2023-08-30T06:47:57;27.15;60.44
63976;DHT22;50167;47.958;21.780;2023-08-30T06:50:23;27.59;57.38
63976;DHT22;50167;47.958;21.780;2023-08-30T06:52:50;27.40;57.38
63976;DHT22;50167;47.958;21.780;2023-08-30T06:55:16;26.78;59.12
63976;DHT22;50167;47.958;21.780;2023-08-30T06:57:47;26.28;60.78
63976;DHT22;50167;47.958;21.780;2023-08-30T07:00:14;25.91;60.42
63976;DHT22;50167;47.958;21.780;2023-08-30T07:02:40;25.66;61.43
63976;DHT22;50167;47.958;21.780;2023-08-30T07:05:08;25.45;61.83
63976;DHT22;50167;47.958;21.780;2023-08-30T07:07:34;25.22;62.34
63976;DHT22;50167;47.958;21.780;2023-08-30T07:10:01;25.80;62.06
63976;DHT22;50167;47.958;21.780;2023-08-30T07:12:28;26.89;59.95
63976;DHT22;50167;47.958;21.780;2023-08-30T07:14:54;27.62;57.43
63976;DHT22;50167;47.958;21.780;2023-08-30T07:17:21;27.51;56.92
63976;DHT22;50167;47.958;21.780;2023-08-30T07:19:49;26.99;58.80
63976;DHT22;50167;47.958;21.780;2023-08-30T07:22:15;26.62;58.48
63976;DHT22;50167;47.958;21.780;2023-08-30T07:24:44;26.32;59.62
63976;DHT22;50167;47.958;21.780;2023-08-30T07:27:10;26.12;59.69
63976;DHT22;50167;47.958;21.780;2023-08-30T07:29:39;25.84;59.20
63976;DHT22;50167;47.958;21.780;2023-08-30T07:32:09;25.56;61.14
63976;DHT22;50167;47.958;21.780;2023-08-30T07:34:36;25.35;61.63
63976;DHT22;50167;47.958;21.780;2023-08-30T07:37:02;25.21;62.20
63976;DHT22;50167;47.958;21.780;2023-08-30T07:39:28;25.14;62.23
63976;DHT22;50167;47.958;21.780;2023-08-30T07:41:54;25.02;62.17
63976;DHT22;50167;47.958;21.780;2023-08-30T07:44:20;24.94;62.15
63976;DHT22;50167;47.958;21.780;2023-08-30T07:46:47;24.87;61.65
63976;DHT22;50167;47.958;21.780;2023-08-30T07:49:13;24.82;62.88
63976;DHT22;50167;47.958;21.780;2023-08-30T07:51:40;25.59;62.37
63976;DHT22;50167;47.958;21.780;2023-08-30T07:54:06;26.87;59.38
63976;DHT22;50167;47.958;21.780;2023-08-30T07:56:33;27.31;54.15
63976;DHT22;50167;47.958;21.780;2023-08-30T07:58:59;26.79;54.91
63976;DHT22;50167;47.958;21.780;2023-08-30T08:01:25;26.43;55.38
63976;DHT22;50167;47.958;21.780;2023-08-30T08:03:51;26.28;56.73
63976;DHT22;50167;47.958;21.780;2023-08-30T08:06:18;26.21;56.12
63976;DHT22;50167;47.958;21.780;2023-08-30T08:08:44;26.18;55.69
63976;DHT22;50167;47.958;21.780;2023-08-30T08:16:20;25.93;56.39
63976;DHT22;50167;47.958;21.780;2023-08-30T08:18:47;25.81;56.93
63976;DHT22;50167;47.958;21.780;2023-08-30T08:21:13;25.77;57.22
63976;DHT22;50167;47.958;21.780;2023-08-30T08:23:40;25.80;57.31
63976;DHT22;50167;47.958;21.780;2023-08-30T08:26:06;25.77;56.85
63976;DHT22;50167;47.958;21.780;2023-08-30T08:28:34;25.72;57.22
63976;DHT22;50167;47.958;21.780;2023-08-30T08:31:00;25.70;57.93
63976;DHT22;50167;47.958;21.780;2023-08-30T08:33:27;25.70;57.76
63976;DHT22;50167;47.958;21.780;2023-08-30T08:35:53;25.79;57.53
63976;DHT22;50167;47.958;21.780;2023-08-30T08:38:19;25.88;57.36
63976;DHT22;50167;47.958;21.780;2023-08-30T08:40:45;25.98;56.73
63976;DHT22;50167;47.958;21.780;2023-08-30T08:43:11;26.01;57.35
63976;DHT22;50167;47.958;21.780;2023-08-30T08:45:41;26.05;57.61
63976;DHT22;50167;47.958;21.780;2023-08-30T08:48:09;26.15;57.73
63976;DHT22;50167;47.958;21.780;2023-08-30T08:50:37;26.24;56.71
63976;DHT22;50167;47.958;21.780;2023-08-30T08:53:04;26.27;55.69
63976;DHT22;50167;47.958;21.780;2023-08-30T08:55:37;26.22;56.60
63976;DHT22;50167;47.958;21.780;2023-08-30T08:58:06;26.18;56.97
63976;DHT22;50167;47.958;21.780;2023-08-30T09:00:33;26.22;56.32
63976;DHT22;50167;47.958;21.780;2023-08-30T09:02:59;26.28;57.15
63976;DHT22;50167;47.958;21.780;2023-08-30T09:05:27;26.35;57.16
63976;DHT22;50167;47.958;21.780;2023-08-30T09:07:55;26.48;57.27
63976;DHT22;50167;47.958;21.780;2023-08-30T09:10:21;26.62;57.40
63976;DHT22;50167;47.958;21.780;2023-08-30T09:12:48;26.80;56.39
63976;DHT22;50167;47.958;21.780;2023-08-30T09:15:14;26.97;56.16
63976;DHT22;50167;47.958;21.780;2023-08-30T09:17:41;27.09;56.05
63976;DHT22;50167;47.958;21.780;2023-08-30T09:20:11;27.21;56.05
63976;DHT22;50167;47.958;21.780;2023-08-30T09:22:42;27.31;54.45
63976;DHT22;50167;47.958;21.780;2023-08-30T09:25:11;27.40;54.57
63976;DHT22;50167;47.958;21.780;2023-08-30T09:27:37;27.51;54.47
63976;DHT22;50167;47.958;21.780;2023-08-30T09:30:09;27.54;53.37
63976;DHT22;50167;47.958;21.780;2023-08-30T09:32:40;27.58;54.21
63976;DHT22;50167;47.958;21.780;2023-08-30T09:35:08;27.62;52.61
63976;DHT22;50167;47.958;21.780;2023-08-30T09:37:35;27.62;51.19
63976;DHT22;50167;47.958;21.780;2023-08-30T09:40:01;27.54;51.12
63976;DHT22;50167;47.958;21.780;2023-08-30T09:42:28;27.52;52.07
63976;DHT22;50167;47.958;21.780;2023-08-30T09:44:55;27.54;50.97
63976;DHT22;50167;47.958;21.780;2023-08-30T09:47:27;27.49;52.54
63976;DHT22;50167;47.958;21.780;2023-08-30T09:49:55;27.47;53.09
63976;DHT22;50167;47.958;21.780;2023-08-30T09:52:24;27.52;53.41
63976;DHT22;50167;47.958;21.780;2023-08-30T09:54:54;27.62;52.23
63976;DHT22;50167;47.958;21.780;2023-08-30T09:57:21;27.82;51.91
63976;DHT22;50167;47.958;21.780;2023-08-30T09:59:48;27.99;51.36
63976;DHT22;50167;47.958;21.780;2023-08-30T10:02:16;28.09;51.81
63976;DHT22;50167;47.958;21.780;2023-08-30T10:04:44;28.16;51.31
63976;DHT22;50167;47.958;21.780;2023-08-30T10:07:11;28.20;51.29
63976;DHT22;50167;47.958;21.780;2023-08-30T10:09:38;28.23;51.03
63976;DHT22;50167;47.958;21.780;2023-08-30T10:12:08;28.19;51.13
63976;DHT22;50167;47.958;21.780;2023-08-30T10:14:36;28.14;52.02
63976;DHT22;50167;47.958;21.780;2023-08-30T10:17:05;28.07;52.21
63976;DHT22;50167;47.958;21.780;2023-08-30T10:19:34;27.97;52.08
63976;DHT22;50167;47.958;21.780;2023-08-30T10:22:06;27.87;52.82
63976;DHT22;50167;47.958;21.780;2023-08-30T10:27:15;27.71;53.29
63976;DHT22;50167;47.958;21.780;2023-08-30T10:29:43;27.69;53.00
63976;DHT22;50167;47.958;21.780;2023-08-30T10:32:10;27.72;53.44
63976;DHT22;50167;47.958;21.780;2023-08-30T10:34:36;27.71;52.96
63976;DHT22;50167;47.958;21.780;2023-08-30T10:37:10;27.71;52.96
63976;DHT22;50167;47.958;21.780;2023-08-30T10:40:08;27.66;53.29
63976;DHT22;50167;47.958;21.780;2023-08-30T10:42:35;27.66;53.38
63976;DHT22;50167;47.958;21.780;2023-08-30T10:45:05;27.68;53.14
63976;DHT22;50167;47.958;21.780;2023-08-30T10:47:35;27.62;53.34
63976;DHT22;50167;47.958;21.780;2023-08-30T10:50:07;27.59;53.80
63976;DHT22;50167;47.958;21.780;2023-08-30T10:52:34;27.57;54.19
63976;DHT22;50167;47.958;21.780;2023-08-30T10:55:15;27.65;54.00
63976;DHT22;50167;47.958;21.780;2023-08-30T10:57:43;27.73;53.53
63976;DHT22;50167;47.958;21.780;2023-08-30T11:02:50;27.73;53.95
63976;DHT22;50167;47.958;21.780;2023-08-30T11:05:22;27.83;53.92
63976;DHT22;50167;47.958;21.780;2023-08-30T11:08:10;28.24;54.07
63976;DHT22;50167;47.958;21.780;2023-08-30T11:10:36;28.61;52.64
63976;DHT22;50167;47.958;21.780;2023-08-30T11:13:03;28.86;52.89
63976;DHT22;50167;47.958;21.780;2023-08-30T11:15:29;29.00;52.78
63976;DHT22;50167;47.958;21.780;2023-08-30T11:18:02;29.06;51.86
63976;DHT22;50167;47.958;21.780;2023-08-30T11:20:28;28.96;50.75
63976;DHT22;50167;47.958;21.780;2023-08-30T11:22:55;28.78;51.50
63976;DHT22;50167;47.958;21.780;2023-08-30T11:25:22;28.62;51.71
63976;DHT22;50167;47.958;21.780;2023-08-30T11:27:48;28.52;51.94
63976;DHT22;50167;47.958;21.780;2023-08-30T11:30:14;28.45;52.03
63976;DHT22;50167;47.958;21.780;2023-08-30T11:32:42;28.45;52.00
63976;DHT22;50167;47.958;21.780;2023-08-30T11:35:11;28.41;51.83
63976;DHT22;50167;47.958;21.780;2023-08-30T11:37:37;28.35;51.84
63976;DHT22;50167;47.958;21.780;2023-08-30T11:40:07;28.35;52.80
63976;DHT22;50167;47.958;21.780;2023-08-30T11:42:33;28.31;52.48
63976;DHT22;50167;47.958;21.780;2023-08-30T11:45:01;28.28;52.38
63976;DHT22;50167;47.958;21.780;2023-08-30T11:47:28;28.23;52.03
63976;DHT22;50167;47.958;21.780;2023-08-30T11:49:56;28.16;52.82
63976;DHT22;50167;47.958;21.780;2023-08-30T11:52:24;28.10;52.83
63976;DHT22;50167;47.958;21.780;2023-08-30T11:54:51;28.03;53.11
63976;DHT22;50167;47.958;21.780;2023-08-30T11:57:19;27.97;53.41
63976;DHT22;50167;47.958;21.780;2023-08-30T11:59:45;27.99;53.59
63976;DHT22;50167;47.958;21.780;2023-08-30T12:02:16;27.92;53.35
63976;DHT22;50167;47.958;21.780;2023-08-30T12:04:44;27.85;53.44
63976;DHT22;50167;47.958;21.780;2023-08-30T12:07:22;27.82;53.42
63976;DHT22;50167;47.958;21.780;2023-08-30T12:09:49;27.71;53.52
63976;DHT22;50167;47.958;21.780;2023-08-30T12:12:15;27.61;53.52
63976;DHT22;50167;47.958;21.780;2023-08-30T12:14:41;27.49;53.78
63976;DHT22;50167;47.958;21.780;2023-08-30T12:17:08;27.38;54.07
63976;DHT22;50167;47.958;21.780;2023-08-30T12:19:36;27.28;54.29
63976;DHT22;50167;47.958;21.780;2023-08-30T12:22:04;27.27;54.42
63976;DHT22;50167;47.958;21.780;2023-08-30T12:24:44;27.24;54.66
63976;DHT22;50167;47.958;21.780;2023-08-30T12:27:10;27.28;54.48
63976;DHT22;50167;47.958;21.780;2023-08-30T12:29:37;27.38;54.43
63976;DHT22;50167;47.958;21.780;2023-08-30T12:32:04;27.51;55.03
63976;DHT22;50167;47.958;21.780;2023-08-30T12:34:30;27.77;54.47
63976;DHT22;50167;47.958;21.780;2023-08-30T12:36:56;28.09;53.99
63976;DHT22;50167;47.958;21.780;2023-08-30T12:39:23;28.51;52.13
63976;DHT22;50167;47.958;21.780;2023-08-30T12:41:49;28.86;51.07
63976;DHT22;50167;47.958;21.780;2023-08-30T12:44:15;29.13;50.47
63976;DHT22;50167;47.958;21.780;2023-08-30T12:46:41;29.22;50.24
63976;DHT22;50167;47.958;21.780;2023-08-30T12:49:08;29.29;50.33
63976;DHT22;50167;47.958;21.780;2023-08-30T12:51:34;29.38;50.86
63976;DHT22;50167;47.958;21.780;2023-08-30T12:54:00;29.61;49.68
63976;DHT22;50167;47.958;21.780;2023-08-30T12:56:26;29.77;49.58
63976;DHT22;50167;47.958;21.780;2023-08-30T12:58:52;30.16;49.44
63976;DHT22;50167;47.958;21.780;2023-08-30T13:01:21;30.66;47.47
63976;DHT22;50167;47.958;21.780;2023-08-30T13:03:47;30.81;47.36
63976;DHT22;50167;47.958;21.780;2023-08-30T13:06:13;31.56;45.93
63976;DHT22;50167;47.958;21.780;2023-08-30T13:08:39;32.21;44.19
63976;DHT22;50167;47.958;21.780;2023-08-30T13:11:06;32.17;43.98
63976;DHT22;50167;47.958;21.780;2023-08-30T13:13:32;31.69;44.41
63976;DHT22;50167;47.958;21.780;2023-08-30T13:15:58;31.11;45.28
63976;DHT22;50167;47.958;21.780;2023-08-30T13:18:25;30.53;46.03
63976;DHT22;50167;47.958;21.780;2023-08-30T13:20:56;29.91;47.41
63976;DHT22;50167;47.958;21.780;2023-08-30T13:23:22;29.34;49.01
63976;DHT22;50167;47.958;21.780;2023-08-30T13:25:48;28.71;50.65
63976;DHT22;50167;47.958;21.780;2023-08-30T13:28:15;28.12;52.05
63976;DHT22;50167;47.958;21.780;2023-08-30T13:30:46;27.61;53.48
63976;DHT22;50167;47.958;21.780;2023-08-30T13:33:13;27.15;54.34
63976;DHT22;50167;47.958;21.780;2023-08-30T13:35:39;26.76;55.67
63976;DHT22;50167;47.958;21.780;2023-08-30T13:38:05;26.46;56.70
63976;DHT22;50167;47.958;21.780;2023-08-30T13:40:32;26.20;58.41
63976;DHT22;50167;47.958;21.780;2023-08-30T13:42:58;25.93;61.71
63976;DHT22;50167;47.958;21.780;2023-08-30T13:45:24;25.67;63.15
63976;DHT22;50167;47.958;21.780;2023-08-30T13:47:51;26.28;63.17
63976;DHT22;50167;47.958;21.780;2023-08-30T13:50:19;27.27;59.61
63976;DHT22;50167;47.958;21.780;2023-08-30T13:52:45;27.75;60.64
63976;DHT22;50167;47.958;21.780;2023-08-30T13:55:11;27.93;60.44
63976;DHT22;50167;47.958;21.780;2023-08-30T13:57:37;27.92;60.66
63976;DHT22;50167;47.958;21.780;2023-08-30T14:00:05;27.93;61.21
63976;DHT22;50167;47.958;21.780;2023-08-30T14:02:36;28.02;60.22
63976;DHT22;50167;47.958;21.780;2023-08-30T14:05:02;28.00;58.96
63976;DHT22;50167;47.958;21.780;2023-08-30T14:07:29;27.35;59.63
63976;DHT22;50167;47.958;21.780;2023-08-30T14:09:55;26.52;61.40
63976;DHT22;50167;47.958;21.780;2023-08-30T14:12:22;25.79;62.99
63976;DHT22;50167;47.958;21.780;2023-08-30T14:14:48;25.91;62.51
63976;DHT22;50167;47.958;21.780;2023-08-30T14:17:14;26.49;61.56
63976;DHT22;50167;47.958;21.780;2023-08-30T14:19:40;26.74;61.66
63976;DHT22;50167;47.958;21.780;2023-08-30T14:22:06;26.93;61.59
63976;DHT22;50167;47.958;21.780;2023-08-30T14:24:33;27.22;59.30
63976;DHT22;50167;47.958;21.780;2023-08-30T14:27:03;26.93;59.85
63976;DHT22;50167;47.958;21.780;2023-08-30T14:29:30;26.05;60.65
63976;DHT22;50167;47.958;21.780;2023-08-30T14:31:56;25.29;61.95
63976;DHT22;50167;47.958;21.780;2023-08-30T14:34:22;24.60;63.19
63976;DHT22;50167;47.958;21.780;2023-08-30T14:36:48;24.78;63.97
63976;DHT22;50167;47.958;21.780;2023-08-30T14:39:15;25.42;62.04
63976;DHT22;50167;47.958;21.780;2023-08-30T14:41:41;25.69;62.03
63976;DHT22;50167;47.958;21.780;2023-08-30T14:44:08;25.81;60.31
63976;DHT22;50167;47.958;21.780;2023-08-30T14:46:34;25.88;60.64
63976;DHT22;50167;47.958;21.780;2023-08-30T14:49:02;25.93;59.69
63976;DHT22;50167;47.958;21.780;2023-08-30T14:51:28;26.00;61.35
63976;DHT22;50167;47.958;21.780;2023-08-30T14:53:54;26.08;60.73
63976;DHT22;50167;47.958;21.780;2023-08-30T14:56:20;26.01;59.99
63976;DHT22;50167;47.958;21.780;2023-08-30T14:58:47;25.93;60.89
63976;DHT22;50167;47.958;21.780;2023-08-30T15:01:15;25.94;61.63
63976;DHT22;50167;47.958;21.780;2023-08-30T15:03:42;25.97;61.54
63976;DHT22;50167;47.958;21.780;2023-08-30T15:06:08;26.04;61.10
63976;DHT22;50167;47.958;21.780;2023-08-30T15:08:35;26.15;60.82
63976;DHT22;50167;47.958;21.780;2023-08-30T15:11:01;26.27;60.92
63976;DHT22;50167;47.958;21.780;2023-08-30T15:13:29;26.31;60.43
63976;DHT22;50167;47.958;21.780;2023-08-30T15:15:56;26.45;59.98
63976;DHT22;50167;47.958;21.780;2023-08-30T15:18:22;26.32;58.44
63976;DHT22;50167;47.958;21.780;2023-08-30T15:20:53;25.66;59.65
63976;DHT22;50167;47.958;21.780;2023-08-30T15:23:21;24.60;61.82
63976;DHT22;50167;47.958;21.780;2023-08-30T15:25:49;23.75;63.83
63976;DHT22;50167;47.958;21.780;2023-08-30T15:28:16;23.89;64.63
63976;DHT22;50167;47.958;21.780;2023-08-30T15:30:43;24.46;63.80